createdAt,value
2022-12-12T00:02:14.158Z,10.35
2022-12-12T00:04:41.656Z,9.77
2022-12-12T00:07:09.468Z,10.48
2022-12-12T00:09:37.388Z,9.55
2022-12-12T00:12:07.507Z,10.20
2022-12-12T00:14:35.524Z,8.63
2022-12-12T00:17:03.928Z,10.25
2022-12-12T00:19:32.113Z,10.95
2022-12-12T00:21:59.772Z,10.65
2022-12-12T00:24:27.523Z,10.60
2022-12-12T00:26:54.657Z,11.02
2022-12-12T00:29:22.100Z,11.27
2022-12-12T00:31:49.165Z,10.13
2022-12-12T00:34:19.084Z,10.98
2022-12-12T00:36:46.440Z,10.32
2022-12-12T00:39:18.455Z,10.55
2022-12-12T00:41:46.517Z,9.88
2022-12-12T00:44:13.967Z,11.25
2022-12-12T00:46:41.190Z,14.40
2022-12-12T00:49:08.572Z,11.23
2022-12-12T00:51:36.146Z,11.10
2022-12-12T00:54:03.076Z,10.07
2022-12-12T00:56:30.833Z,9.82
2022-12-12T00:58:58.317Z,10.00
2022-12-12T01:01:28.071Z,11.52
2022-12-12T01:03:55.908Z,10.75
2022-12-12T01:06:23.652Z,9.80
2022-12-12T01:08:51.809Z,8.75
2022-12-12T01:11:20.181Z,10.63
2022-12-12T01:13:49.022Z,9.35
2022-12-12T01:16:16.557Z,8.93
2022-12-12T01:18:44.129Z,9.55
2022-12-12T01:21:13.965Z,8.82
2022-12-12T01:23:42.072Z,8.27
2022-12-12T01:26:15.889Z,9.25
2022-12-12T01:28:43.324Z,8.38
2022-12-12T01:31:10.982Z,8.35
2022-12-12T01:33:38.665Z,7.35
2022-12-12T01:36:06.630Z,8.60
2022-12-12T01:38:33.617Z,8.68
2022-12-12T01:41:02.894Z,8.82
2022-12-12T01:43:30.745Z,8.75
2022-12-12T01:45:59.481Z,8.68
2022-12-12T01:48:42.070Z,8.70
2022-12-12T01:51:16.743Z,8.88
2022-12-12T01:53:46.025Z,8.98
2022-12-12T01:56:17.663Z,7.70
2022-12-12T01:58:47.299Z,7.50
2022-12-12T02:01:15.739Z,8.20
2022-12-12T02:03:43.349Z,8.13
2022-12-12T02:06:15.896Z,6.65
2022-12-12T02:08:46.322Z,6.75
2022-12-12T02:11:19.522Z,6.43
2022-12-12T02:13:50.638Z,4.75
2022-12-12T02:16:53.354Z,4.63
2022-12-12T02:19:50.406Z,5.20
2022-12-12T02:22:51.678Z,4.70
2022-12-12T02:25:56.138Z,3.40
2022-12-12T02:28:23.526Z,5.35
2022-12-12T02:31:17.370Z,3.75
2022-12-12T02:34:08.578Z,3.65
2022-12-12T02:36:57.993Z,4.22
2022-12-12T02:39:27.634Z,3.95
2022-12-12T02:42:10.584Z,3.30
2022-12-12T02:44:59.058Z,4.10
2022-12-12T02:47:32.761Z,4.45
2022-12-12T02:50:05.479Z,4.13
2022-12-12T02:52:33.207Z,3.58
2022-12-12T02:55:00.790Z,3.50
2022-12-12T02:57:28.050Z,3.80
2022-12-12T03:00:07.549Z,4.32
2022-12-12T03:02:43.450Z,3.20
2022-12-12T03:06:23.077Z,3.90
2022-12-12T03:09:13.012Z,3.38
2022-12-12T03:12:01.631Z,2.70
2022-12-12T03:14:39.126Z,3.58
2022-12-12T03:17:06.208Z,3.03
2022-12-12T03:19:39.106Z,3.90
2022-12-12T03:22:42.652Z,3.30
2022-12-12T03:25:32.986Z,2.92
2022-12-12T03:28:09.707Z,2.10
2022-12-12T03:30:44.161Z,2.47
2022-12-12T03:33:28.698Z,2.20
2022-12-12T03:36:02.344Z,3.13
2022-12-12T03:38:33.917Z,2.40
2022-12-12T03:41:05.263Z,2.70
2022-12-12T03:43:41.390Z,1.88
2022-12-12T03:46:12.657Z,2.10
2022-12-12T03:49:03.381Z,2.55
2022-12-12T03:51:35.991Z,2.00
2022-12-12T03:54:13.751Z,2.45
2022-12-12T03:56:47.456Z,2.58
2022-12-12T03:59:27.263Z,1.67
2022-12-12T04:02:13.147Z,2.28
2022-12-12T04:04:54.564Z,2.65
2022-12-12T04:07:27.767Z,2.55
2022-12-12T04:10:14.198Z,2.40
2022-12-12T04:13:03.622Z,2.30
2022-12-12T04:15:48.505Z,1.83
2022-12-12T04:18:40.567Z,2.80
2022-12-12T04:21:54.471Z,1.83
2022-12-12T04:24:32.375Z,2.22
2022-12-12T04:27:10.661Z,1.90
2022-12-12T04:29:50.964Z,2.08
2022-12-12T04:32:34.070Z,1.52
2022-12-12T04:35:15.138Z,2.33
2022-12-12T04:37:49.465Z,3.45
2022-12-12T04:40:30.371Z,1.92
2022-12-12T04:43:02.805Z,2.60
2022-12-12T04:45:36.602Z,2.53
2022-12-12T04:48:07.139Z,2.88
2022-12-12T04:50:35.345Z,2.72
2022-12-12T04:53:07.581Z,3.40
2022-12-12T04:55:38.211Z,2.22
2022-12-12T04:58:06.354Z,2.33
2022-12-12T05:00:52.365Z,3.13
2022-12-12T05:03:47.084Z,2.85
2022-12-12T05:06:19.682Z,2.90
2022-12-12T05:08:51.828Z,2.85
2022-12-12T05:11:21.244Z,3.38
2022-12-12T05:13:49.423Z,3.22
2022-12-12T05:16:38.754Z,2.60
2022-12-12T05:19:06.392Z,3.25
2022-12-12T05:21:33.702Z,3.55
2022-12-12T05:24:01.047Z,3.05
2022-12-12T05:26:30.601Z,3.08
2022-12-12T05:29:06.679Z,3.30
2022-12-12T05:31:34.730Z,2.50
2022-12-12T05:34:02.222Z,2.80
2022-12-12T05:36:29.983Z,3.40
2022-12-12T05:38:56.862Z,3.13
2022-12-12T05:41:23.945Z,2.35
2022-12-12T05:43:50.864Z,2.17
2022-12-12T05:46:20.768Z,2.55
2022-12-12T05:48:50.571Z,2.40
2022-12-12T05:51:18.646Z,2.85
2022-12-12T05:53:47.313Z,2.47
2022-12-12T05:56:14.779Z,3.38
2022-12-12T05:58:44.207Z,3.63
2022-12-12T06:01:11.740Z,2.63
2022-12-12T06:03:38.906Z,3.28
2022-12-12T06:06:06.348Z,2.75
2022-12-12T06:08:40.477Z,2.53
2022-12-12T06:11:08.884Z,3.05
2022-12-12T06:13:38.365Z,3.17
2022-12-12T06:16:10.363Z,2.63
2022-12-12T06:18:38.208Z,2.55
2022-12-12T06:21:08.304Z,2.75
2022-12-12T06:23:40.433Z,2.50
2022-12-12T06:26:09.393Z,3.28
2022-12-12T06:28:36.877Z,2.00
2022-12-12T06:31:11.513Z,2.70
2022-12-12T06:33:43.071Z,2.13
2022-12-12T06:36:12.860Z,2.05
2022-12-12T06:38:40.481Z,2.60
2022-12-12T06:41:17.624Z,2.67
2022-12-12T06:43:45.410Z,2.50
2022-12-12T06:46:21.534Z,2.17
2022-12-12T06:48:49.116Z,2.47
2022-12-12T06:51:21.595Z,2.55
2022-12-12T06:53:49.041Z,2.42
2022-12-12T07:04:57.747Z,2.55
2022-12-12T07:07:25.404Z,2.33
2022-12-12T07:09:56.097Z,3.25
2022-12-12T07:12:23.985Z,3.05
2022-12-12T07:14:51.676Z,6.00
2022-12-12T07:17:27.464Z,8.15
2022-12-12T07:20:01.650Z,5.07
2022-12-12T07:22:29.577Z,3.63
2022-12-12T07:24:57.458Z,3.90
2022-12-12T07:27:27.703Z,4.70
2022-12-12T07:29:56.336Z,4.75
2022-12-12T07:32:23.929Z,3.85
2022-12-12T07:34:54.720Z,4.30
2022-12-12T07:37:23.449Z,3.80
2022-12-12T07:39:51.177Z,3.20
2022-12-12T07:43:41.527Z,3.70
2022-12-12T07:46:12.293Z,3.72
2022-12-12T07:48:45.927Z,5.60
2022-12-12T07:51:14.449Z,4.20
2022-12-12T07:53:44.406Z,4.82
2022-12-12T07:56:14.120Z,5.28
2022-12-12T07:58:45.264Z,4.93
2022-12-12T08:01:17.946Z,3.50
2022-12-12T08:03:46.554Z,3.80
2022-12-12T08:06:17.789Z,3.35
2022-12-12T08:08:47.773Z,3.83
2022-12-12T08:11:17.613Z,4.00
2022-12-12T08:13:55.433Z,4.20
2022-12-12T08:16:26.586Z,4.28
2022-12-12T08:18:58.536Z,4.70
2022-12-12T08:22:22.619Z,5.40
2022-12-12T08:25:35.378Z,5.07
2022-12-12T08:28:19.624Z,4.70
2022-12-12T08:35:32.172Z,5.30
2022-12-12T08:38:42.138Z,4.30
2022-12-12T08:41:40.467Z,4.55
2022-12-12T08:44:42.541Z,3.83
2022-12-12T08:57:42.016Z,5.70
2022-12-12T09:00:32.370Z,4.10
2022-12-12T09:03:02.478Z,4.88
2022-12-12T09:05:33.077Z,8.98
2022-12-12T09:08:06.433Z,6.47
2022-12-12T09:10:34.009Z,6.78
2022-12-12T09:13:01.109Z,6.38
2022-12-12T09:15:28.166Z,6.70
2022-12-12T09:17:56.774Z,7.72
2022-12-12T09:20:27.418Z,4.43
2022-12-12T09:23:30.234Z,6.85
2022-12-12T09:26:16.178Z,7.93
2022-12-12T09:31:16.260Z,7.05
2022-12-12T09:33:43.657Z,15.63
2022-12-12T09:36:13.050Z,13.68
2022-12-12T09:38:40.639Z,6.75
2022-12-12T09:41:30.890Z,16.15
2022-12-12T09:44:06.304Z,28.90
2022-12-12T09:46:44.201Z,18.67
2022-12-12T09:49:15.782Z,13.38
2022-12-12T09:51:46.100Z,39.13
2022-12-12T09:57:42.151Z,19.23
2022-12-12T10:00:31.825Z,17.52
2022-12-12T10:03:38.039Z,12.60
2022-12-12T10:06:36.459Z,23.52
2022-12-12T10:09:57.584Z,8.15
2022-12-12T10:12:41.043Z,7.70
2022-12-12T10:15:39.974Z,11.63
2022-12-12T10:18:33.186Z,14.27
2022-12-12T10:21:19.465Z,28.77
2022-12-12T10:23:54.744Z,16.17
2022-12-12T10:26:27.690Z,28.35
2022-12-12T10:29:11.651Z,21.67
2022-12-12T10:32:09.855Z,16.08
2022-12-12T10:34:57.580Z,10.00
2022-12-12T10:37:53.516Z,9.07
2022-12-12T10:40:23.575Z,7.28
2022-12-12T10:43:14.366Z,8.32
2022-12-12T10:46:11.089Z,9.48
2022-12-12T10:48:40.503Z,8.75
2022-12-12T10:51:19.887Z,9.02
2022-12-12T10:53:50.795Z,7.28
2022-12-12T10:56:31.295Z,7.45
2022-12-12T10:59:03.467Z,9.05
2022-12-12T11:04:27.443Z,7.85
2022-12-12T11:06:57.350Z,7.72
2022-12-12T11:09:30.521Z,8.40
2022-12-12T11:12:12.174Z,8.93
2022-12-12T11:15:05.778Z,7.80
2022-12-12T11:17:40.683Z,8.05
2022-12-12T11:20:24.721Z,6.28
2022-12-12T11:23:13.699Z,6.75
2022-12-12T11:26:32.269Z,7.78
2022-12-12T11:29:16.130Z,7.50
2022-12-12T11:31:44.293Z,7.88
2022-12-12T11:34:14.525Z,9.20
2022-12-12T11:36:42.519Z,7.63
2022-12-12T11:39:30.816Z,8.30
2022-12-12T11:42:03.734Z,11.10
2022-12-12T11:44:34.439Z,8.85
2022-12-12T11:47:27.566Z,8.40
2022-12-12T11:50:00.134Z,10.48
2022-12-12T11:52:33.699Z,9.07
2022-12-12T11:55:01.905Z,15.80
2022-12-12T11:57:56.610Z,13.57
2022-12-12T12:00:35.496Z,10.15
2022-12-12T12:03:22.956Z,9.07
2022-12-12T12:06:13.276Z,10.55
2022-12-12T12:08:59.272Z,7.65
2022-12-12T12:11:35.315Z,10.93
2022-12-12T12:14:36.091Z,7.40
2022-12-12T12:17:27.884Z,8.68
2022-12-12T12:19:57.647Z,9.27
2022-12-12T12:22:52.656Z,9.63
2022-12-12T12:25:47.807Z,10.68
2022-12-12T12:29:08.454Z,8.90
2022-12-12T12:32:01.629Z,9.73
2022-12-12T12:34:40.282Z,7.90
2022-12-12T12:37:14.607Z,9.80
2022-12-12T12:40:35.713Z,9.60
2022-12-12T12:43:27.066Z,8.13
2022-12-12T12:46:01.788Z,11.43
2022-12-12T12:48:34.148Z,11.00
2022-12-12T12:51:17.664Z,8.50
2022-12-12T12:54:02.816Z,8.80
2022-12-12T12:56:32.925Z,10.18
2022-12-12T12:59:03.052Z,10.75
2022-12-12T13:01:48.772Z,9.60
2022-12-12T13:04:42.330Z,8.75
2022-12-12T13:07:30.312Z,9.27
2022-12-12T13:10:07.700Z,7.43
2022-12-12T13:12:43.336Z,7.57
2022-12-12T13:15:32.685Z,7.40
2022-12-12T13:18:03.689Z,7.38
2022-12-12T13:20:38.704Z,8.20
2022-12-12T13:23:22.317Z,7.72
2022-12-12T13:26:00.549Z,6.15
2022-12-12T13:28:50.140Z,6.20
2022-12-12T13:31:26.164Z,6.13
2022-12-12T13:34:10.268Z,6.38
2022-12-12T13:36:45.454Z,6.47
2022-12-12T13:39:28.425Z,19.33
2022-12-12T13:42:07.893Z,9.85
2022-12-12T13:44:46.020Z,6.10
2022-12-12T13:47:24.608Z,10.40
2022-12-12T13:50:22.523Z,35.20
2022-12-12T13:53:09.274Z,12.05
2022-12-12T13:55:38.085Z,8.52
2022-12-12T13:58:08.026Z,9.70
2022-12-12T14:00:41.373Z,7.70
2022-12-12T14:03:08.270Z,3.97
2022-12-12T14:05:46.796Z,3.78
2022-12-12T14:08:13.742Z,3.63
2022-12-12T14:10:50.215Z,3.53
2022-12-12T14:13:21.522Z,3.33
2022-12-12T14:16:01.428Z,2.58
2022-12-12T14:18:35.376Z,2.50
2022-12-12T14:21:06.989Z,2.70
2022-12-12T14:23:42.495Z,2.80
2022-12-12T14:26:32.684Z,5.25
2022-12-12T14:29:18.656Z,5.35
2022-12-12T14:31:58.412Z,5.20
2022-12-12T14:35:02.984Z,4.65
2022-12-12T14:37:56.377Z,7.35
2022-12-12T14:40:45.865Z,6.95
2022-12-12T14:43:19.479Z,5.70
2022-12-12T14:46:01.167Z,3.50
2022-12-12T14:48:36.031Z,4.15
2022-12-12T14:51:29.553Z,3.83
2022-12-12T14:53:59.035Z,4.22
2022-12-12T14:56:39.508Z,4.55
2022-12-12T14:59:12.643Z,4.47
2022-12-12T15:01:58.666Z,4.95
2022-12-12T15:04:34.993Z,4.50
2022-12-12T15:07:04.742Z,5.53
2022-12-12T15:09:32.906Z,7.78
2022-12-12T15:12:15.014Z,8.25
2022-12-12T15:14:48.201Z,10.43
2022-12-12T15:17:22.686Z,12.93
2022-12-12T15:19:51.028Z,6.60
2022-12-12T15:22:29.912Z,7.97
2022-12-12T15:24:59.249Z,6.30
2022-12-12T15:27:40.192Z,8.75
2022-12-12T15:30:36.762Z,12.80
2022-12-12T15:33:06.523Z,11.35
2022-12-12T15:35:35.050Z,10.23
2022-12-12T15:38:11.819Z,7.70
2022-12-12T15:40:39.887Z,18.50
2022-12-12T15:43:14.979Z,8.15
2022-12-12T15:45:57.369Z,20.50
2022-12-12T15:48:25.644Z,13.48
2022-12-12T15:50:57.964Z,27.08
2022-12-12T15:53:29.530Z,16.15
2022-12-12T15:55:59.425Z,14.70
2022-12-12T15:58:51.830Z,17.08
2022-12-12T16:01:29.024Z,13.50
2022-12-12T16:04:01.375Z,10.65
2022-12-12T16:06:34.681Z,9.65
2022-12-12T16:09:11.727Z,8.05
2022-12-12T16:11:43.106Z,9.68
2022-12-12T16:14:41.755Z,8.02
2022-12-12T16:17:19.871Z,8.07
2022-12-12T16:19:58.141Z,7.00
2022-12-12T16:22:47.589Z,5.90
2022-12-12T16:25:26.382Z,6.60
2022-12-12T16:28:17.979Z,6.40
2022-12-12T16:33:30.100Z,10.13
2022-12-12T16:36:00.563Z,8.00
2022-12-12T16:38:28.688Z,7.35
2022-12-12T16:40:58.177Z,6.80
2022-12-12T16:43:25.235Z,8.52
2022-12-12T16:45:54.473Z,37.03
2022-12-12T16:48:36.200Z,30.58
2022-12-12T16:51:09.166Z,26.60
2022-12-12T16:53:36.713Z,27.95
2022-12-12T16:56:03.937Z,27.00
2022-12-12T16:58:32.640Z,46.78
2022-12-12T17:01:01.640Z,19.17
2022-12-12T17:03:29.839Z,10.82
2022-12-12T17:05:56.820Z,36.97
2022-12-12T17:08:23.827Z,22.77
2022-12-12T17:10:53.331Z,35.83
2022-12-12T17:13:41.063Z,22.95
2022-12-12T17:16:08.025Z,15.15
2022-12-12T17:18:34.998Z,17.23
2022-12-12T17:21:01.817Z,10.98
2022-12-12T17:23:29.588Z,11.60
2022-12-12T17:26:03.115Z,11.98
2022-12-12T17:28:32.425Z,12.32
2022-12-12T17:30:59.512Z,13.82
2022-12-12T17:33:26.974Z,15.15
2022-12-12T17:35:59.433Z,14.27
2022-12-12T17:38:28.624Z,10.48
2022-12-12T17:40:57.194Z,9.55
2022-12-12T17:43:25.042Z,17.25
2022-12-12T17:46:03.832Z,14.43
2022-12-12T17:48:33.759Z,12.40
2022-12-12T17:51:03.643Z,10.35
2022-12-12T17:53:32.479Z,8.98
2022-12-12T17:56:01.623Z,11.00
2022-12-12T17:58:47.616Z,9.25
2022-12-12T18:01:18.912Z,9.30
2022-12-12T18:03:46.125Z,8.80
2022-12-12T18:06:14.227Z,8.55
2022-12-12T18:08:42.261Z,9.32
2022-12-12T18:11:17.538Z,17.65
2022-12-12T18:13:51.135Z,13.90
2022-12-12T18:16:19.192Z,13.07
2022-12-12T18:18:46.756Z,9.95
2022-12-12T18:21:43.278Z,11.05
2022-12-12T18:24:05.234Z,11.70
2022-12-12T18:26:32.767Z,10.20
2022-12-12T18:29:03.412Z,9.77
2022-12-12T18:31:31.166Z,12.55
2022-12-12T18:33:58.480Z,18.90
2022-12-12T18:36:27.718Z,10.75
2022-12-12T18:39:00.139Z,10.60
2022-12-12T18:41:28.176Z,9.88
2022-12-12T18:43:56.001Z,10.95
2022-12-12T18:46:27.621Z,10.90
2022-12-12T18:48:54.550Z,9.88
2022-12-12T18:51:24.538Z,9.32
2022-12-12T18:53:53.354Z,9.52
2022-12-12T18:56:22.826Z,18.63
2022-12-12T18:58:51.846Z,10.07
2022-12-12T19:01:21.880Z,9.60
2022-12-12T19:03:50.747Z,8.30
2022-12-12T19:06:24.056Z,10.15
2022-12-12T19:08:52.907Z,11.27
2022-12-12T19:11:21.313Z,9.23
2022-12-12T19:13:48.314Z,10.07
2022-12-12T19:16:17.363Z,9.27
2022-12-12T19:18:45.615Z,8.85
2022-12-12T19:21:21.737Z,9.73
2022-12-12T19:23:49.783Z,9.07
2022-12-12T19:26:25.959Z,9.00
2022-12-12T19:28:59.620Z,8.80
2022-12-12T19:31:27.375Z,9.43
2022-12-12T19:33:54.547Z,14.82
2022-12-12T19:36:24.627Z,14.13
2022-12-12T19:38:52.591Z,16.80
2022-12-12T19:41:21.738Z,20.75
2022-12-12T19:43:50.292Z,21.83
2022-12-12T19:46:23.320Z,23.73
2022-12-12T19:48:55.136Z,14.70
2022-12-12T19:51:23.936Z,11.60
2022-12-12T19:53:54.229Z,11.27
2022-12-12T19:58:50.394Z,8.52
2022-12-12T20:01:20.061Z,10.25
2022-12-12T20:03:52.452Z,11.75
2022-12-12T20:06:20.328Z,12.13
2022-12-12T20:08:48.253Z,10.48
2022-12-12T20:11:25.504Z,9.43
2022-12-12T20:13:57.984Z,11.82
2022-12-12T20:16:29.647Z,11.80
2022-12-12T20:18:57.894Z,10.88
2022-12-12T20:21:59.824Z,17.00
2022-12-12T20:24:16.422Z,11.55
2022-12-12T20:26:43.351Z,9.45
2022-12-12T20:29:14.058Z,11.00
2022-12-12T20:31:44.278Z,12.30
2022-12-12T20:34:12.979Z,11.00
2022-12-12T20:36:41.878Z,10.52
2022-12-12T20:39:15.992Z,12.13
2022-12-12T20:41:44.084Z,12.32
2022-12-12T20:44:12.887Z,11.35
2022-12-12T20:46:42.922Z,13.85
2022-12-12T20:49:13.157Z,12.50
2022-12-12T20:51:57.339Z,9.85
2022-12-12T20:54:26.393Z,13.10
2022-12-12T20:56:54.421Z,17.52
2022-12-12T20:59:21.588Z,18.13
2022-12-12T21:01:48.709Z,35.97
2022-12-12T21:04:15.750Z,23.42
2022-12-12T21:06:48.174Z,12.93
2022-12-12T21:09:22.541Z,12.63
2022-12-12T21:11:52.266Z,13.27
2022-12-12T21:14:19.420Z,11.93
2022-12-12T21:16:46.792Z,10.88
2022-12-12T21:19:14.509Z,12.10
2022-12-12T21:21:43.194Z,12.90
2022-12-12T21:24:15.424Z,12.60
2022-12-12T21:26:43.005Z,11.85
2022-12-12T21:29:10.147Z,12.27
2022-12-12T21:31:42.339Z,10.48
2022-12-12T21:34:17.488Z,10.60
2022-12-12T21:36:45.318Z,11.48
2022-12-12T21:39:12.653Z,11.20
2022-12-12T21:41:41.823Z,11.48
2022-12-12T21:44:09.607Z,12.73
2022-12-12T21:46:37.117Z,10.50
2022-12-12T21:49:22.439Z,11.23
2022-12-12T21:51:49.379Z,11.48
2022-12-12T21:54:16.641Z,11.45
2022-12-12T21:56:43.892Z,10.57
2022-12-12T21:59:13.086Z,10.73
2022-12-12T22:01:41.007Z,9.00
2022-12-12T22:04:09.132Z,10.85
2022-12-12T22:06:36.486Z,10.75
2022-12-12T22:09:06.694Z,10.80
2022-12-12T22:11:41.365Z,11.45
2022-12-12T22:14:15.953Z,10.43
2022-12-12T22:16:43.534Z,10.70
2022-12-12T22:19:12.909Z,9.20
2022-12-12T22:21:41.343Z,10.38
2022-12-12T22:24:08.647Z,9.43
2022-12-12T22:26:38.514Z,10.20
2022-12-12T22:29:10.531Z,9.85
2022-12-12T22:31:38.644Z,9.77
2022-12-12T22:34:17.503Z,10.75
2022-12-12T22:36:48.083Z,10.45
2022-12-12T22:41:43.497Z,11.15
2022-12-12T22:44:14.345Z,10.50
2022-12-12T22:46:44.056Z,11.00
2022-12-12T22:49:13.647Z,10.52
2022-12-12T22:51:40.555Z,12.18
2022-12-12T22:54:07.518Z,11.77
2022-12-12T22:56:36.344Z,11.80
2022-12-12T22:59:04.737Z,12.32
2022-12-12T23:01:31.734Z,11.77
2022-12-12T23:03:58.736Z,12.35
2022-12-12T23:06:29.903Z,12.98
2022-12-12T23:09:03.446Z,12.60
2022-12-12T23:11:32.398Z,12.82
2022-12-12T23:14:06.528Z,12.23
2022-12-12T23:16:35.601Z,11.77
2022-12-12T23:19:05.764Z,11.13
2022-12-12T23:21:37.098Z,12.77
2022-12-12T23:24:05.786Z,11.43
2022-12-12T23:26:35.125Z,13.68
2022-12-12T23:29:02.734Z,13.82
2022-12-12T23:31:32.323Z,12.50
2022-12-12T23:34:02.165Z,12.52
2022-12-12T23:36:29.291Z,12.40
2022-12-12T23:39:01.548Z,11.18
2022-12-12T23:41:29.340Z,11.85
2022-12-12T23:43:56.931Z,10.82
2022-12-12T23:46:31.397Z,12.13
2022-12-12T23:49:16.067Z,12.05
2022-12-12T23:51:48.835Z,11.70
2022-12-12T23:54:19.286Z,12.75
2022-12-12T23:56:48.750Z,12.43
2022-12-12T23:59:18.226Z,12.70
